sensor_id;sensor_type;location;lat;lon;timestamp;pressure;altitude;pressure_sealevel;temperature;humidity
17505;BME280;8870;50.950;11.762;2023-05-27T00:01:13;99443.13;;;9.82;100.00
17505;BME280;8870;50.950;11.762;2023-05-27T00:06:31;99438.38;;;9.74;100.00
17505;BME280;8870;50.950;11.762;2023-05-27T00:12:05;99433.25;;;9.71;100.00
17505;BME280;8870;50.950;11.762;2023-05-27T00:17:24;99437.47;;;9.64;100.00
17505;BME280;8870;50.950;11.762;2023-05-27T00:22:56;99441.78;;;9.55;100.00
17505;BME280;8870;50.950;11.762;2023-05-27T00:28:18;99446.13;;;9.46;100.00
17505;BME280;8870;50.950;11.762;2023-05-27T00:33:50;99449.94;;;9.32;100.00
17505;BME280;8870;50.950;11.762;2023-05-27T00:39:09;99456.22;;;9.21;100.00
17505;BME280;8870;50.950;11.762;2023-05-27T00:44:44;99467.63;;;9.14;100.00
17505;BME280;8870;50.950;11.762;2023-05-27T00:50:04;99463.00;;;9.04;100.00
17505;BME280;8870;50.950;11.762;2023-05-27T00:55:35;99468.88;;;8.98;100.00
17505;BME280;8870;50.950;11.762;2023-05-27T01:00:56;99467.66;;;8.91;100.00
17505;BME280;8870;50.950;11.762;2023-05-27T01:06:38;99470.09;;;8.83;100.00
17505;BME280;8870;50.950;11.762;2023-05-27T01:12:08;99472.47;;;8.76;100.00
17505;BME280;8870;50.950;11.762;2023-05-27T01:17:46;99455.25;;;8.67;100.00
17505;BME280;8870;50.950;11.762;2023-05-27T01:23:08;99447.78;;;8.59;100.00
17505;BME280;8870;50.950;11.762;2023-05-27T01:28:27;99446.59;;;8.52;100.00
17505;BME280;8870;50.950;11.762;2023-05-27T01:34:02;99445.31;;;8.45;100.00
17505;BME280;8870;50.950;11.762;2023-05-27T01:39:32;99433.38;;;8.38;100.00
17505;BME280;8870;50.950;11.762;2023-05-27T01:45:05;99444.94;;;8.27;100.00
17505;BME280;8870;50.950;11.762;2023-05-27T01:50:24;99444.09;;;8.15;100.00
17505;BME280;8870;50.950;11.762;2023-05-27T01:55:57;99445.66;;;8.06;100.00
17505;BME280;8870;50.950;11.762;2023-05-27T02:01:17;99449.91;;;7.97;100.00
17505;BME280;8870;50.950;11.762;2023-05-27T02:06:49;99447.72;;;7.91;100.00
17505;BME280;8870;50.950;11.762;2023-05-27T02:12:10;99436.72;;;7.83;100.00
17505;BME280;8870;50.950;11.762;2023-05-27T02:17:41;99436.31;;;7.76;100.00
17505;BME280;8870;50.950;11.762;2023-05-27T02:23:07;99432.41;;;7.69;100.00
17505;BME280;8870;50.950;11.762;2023-05-27T02:28:41;99431.41;;;7.59;100.00
17505;BME280;8870;50.950;11.762;2023-05-27T02:34:00;99426.16;;;7.46;100.00
17505;BME280;8870;50.950;11.762;2023-05-27T02:39:32;99425.09;;;7.35;100.00
17505;BME280;8870;50.950;11.762;2023-05-27T02:44:53;99426.91;;;7.23;100.00
17505;BME280;8870;50.950;11.762;2023-05-27T02:50:24;99426.72;;;7.14;100.00
17505;BME280;8870;50.950;11.762;2023-05-27T02:55:43;99420.56;;;7.00;100.00
17505;BME280;8870;50.950;11.762;2023-05-27T03:01:17;99421.59;;;6.86;100.00
17505;BME280;8870;50.950;11.762;2023-05-27T03:06:36;99436.28;;;6.81;100.00
17505;BME280;8870;50.950;11.762;2023-05-27T03:12:09;99433.09;;;6.75;100.00
17505;BME280;8870;50.950;11.762;2023-05-27T03:17:30;99427.09;;;6.72;100.00
17505;BME280;8870;50.950;11.762;2023-05-27T03:23:03;99437.41;;;6.65;100.00
17505;BME280;8870;50.950;11.762;2023-05-27T03:28:22;99439.78;;;6.57;100.00
17505;BME280;8870;50.950;11.762;2023-05-27T03:33:56;99439.28;;;6.52;100.00
17505;BME280;8870;50.950;11.762;2023-05-27T03:39:22;99438.63;;;6.48;100.00
17505;BME280;8870;50.950;11.762;2023-05-27T03:44:54;99445.81;;;6.47;100.00
17505;BME280;8870;50.950;11.762;2023-05-27T03:50:15;99447.41;;;6.50;100.00
17505;BME280;8870;50.950;11.762;2023-05-27T03:55:46;99454.34;;;6.53;100.00
17505;BME280;8870;50.950;11.762;2023-05-27T04:01:05;99460.69;;;6.52;100.00
17505;BME280;8870;50.950;11.762;2023-05-27T04:06:34;99462.38;;;6.53;100.00
17505;BME280;8870;50.950;11.762;2023-05-27T04:12:00;99453.28;;;6.55;100.00
17505;BME280;8870;50.950;11.762;2023-05-27T04:17:19;99454.03;;;6.57;100.00
17505;BME280;8870;50.950;11.762;2023-05-27T04:22:52;99454.56;;;6.62;100.00
17505;BME280;8870;50.950;11.762;2023-05-27T04:28:11;99459.56;;;6.67;100.00
17505;BME280;8870;50.950;11.762;2023-05-27T04:33:44;99457.22;;;6.75;100.00
17505;BME280;8870;50.950;11.762;2023-05-27T04:39:05;99457.59;;;6.82;100.00
17505;BME280;8870;50.950;11.762;2023-05-27T04:44:36;99463.38;;;6.89;100.00
17505;BME280;8870;50.950;11.762;2023-05-27T04:49:56;99457.69;;;6.93;100.00
17505;BME280;8870;50.950;11.762;2023-05-27T04:55:30;99459.78;;;7.01;100.00
17505;BME280;8870;50.950;11.762;2023-05-27T05:00:50;99462.13;;;7.06;100.00
17505;BME280;8870;50.950;11.762;2023-05-27T05:06:23;99463.50;;;7.12;100.00
17505;BME280;8870;50.950;11.762;2023-05-27T05:11:45;99468.63;;;7.15;100.00
17505;BME280;8870;50.950;11.762;2023-05-27T05:17:19;99472.59;;;7.22;100.00
17505;BME280;8870;50.950;11.762;2023-05-27T05:22:39;99478.09;;;7.32;100.00
17505;BME280;8870;50.950;11.762;2023-05-27T05:28:13;99473.66;;;7.44;100.00
17505;BME280;8870;50.950;11.762;2023-05-27T05:33:32;99489.56;;;7.58;100.00
17505;BME280;8870;50.950;11.762;2023-05-27T05:39:03;99489.13;;;7.76;100.00
17505;BME280;8870;50.950;11.762;2023-05-27T05:44:28;99491.13;;;7.96;100.00
17505;BME280;8870;50.950;11.762;2023-05-27T05:50:01;99502.56;;;8.23;100.00
17505;BME280;8870;50.950;11.762;2023-05-27T05:55:19;99505.13;;;8.47;100.00
17505;BME280;8870;50.950;11.762;2023-05-27T06:00:53;99492.72;;;8.80;100.00
17505;BME280;8870;50.950;11.762;2023-05-27T06:06:15;99493.91;;;9.10;100.00
17505;BME280;8870;50.950;11.762;2023-05-27T06:12:09;99492.84;;;9.45;100.00
17505;BME280;8870;50.950;11.762;2023-05-27T06:17:29;99489.75;;;9.71;100.00
17505;BME280;8870;50.950;11.762;2023-05-27T06:23:01;99486.44;;;10.00;100.00
17505;BME280;8870;50.950;11.762;2023-05-27T06:28:51;99480.66;;;10.26;100.00
17505;BME280;8870;50.950;11.762;2023-05-27T06:34:25;99482.81;;;10.53;100.00
17505;BME280;8870;50.950;11.762;2023-05-27T06:39:44;99478.47;;;10.72;100.00
17505;BME280;8870;50.950;11.762;2023-05-27T06:45:17;99475.31;;;10.98;100.00
17505;BME280;8870;50.950;11.762;2023-05-27T06:50:50;99477.50;;;11.23;100.00
17505;BME280;8870;50.950;11.762;2023-05-27T06:56:21;99473.09;;;11.42;100.00
17505;BME280;8870;50.950;11.762;2023-05-27T07:02:02;99460.34;;;11.64;100.00
17505;BME280;8870;50.950;11.762;2023-05-27T07:07:36;99462.31;;;11.91;100.00
17505;BME280;8870;50.950;11.762;2023-05-27T07:12:55;99454.19;;;12.11;100.00
17505;BME280;8870;50.950;11.762;2023-05-27T07:18:30;99446.72;;;12.32;100.00
17505;BME280;8870;50.950;11.762;2023-05-27T07:23:52;99446.06;;;12.58;100.00
17505;BME280;8870;50.950;11.762;2023-05-27T07:29:26;99444.41;;;12.75;100.00
17505;BME280;8870;50.950;11.762;2023-05-27T07:34:47;99445.31;;;12.94;100.00
17505;BME280;8870;50.950;11.762;2023-05-27T07:40:22;99440.25;;;13.09;100.00
17505;BME280;8870;50.950;11.762;2023-05-27T07:45:41;99439.69;;;13.23;100.00
17505;BME280;8870;50.950;11.762;2023-05-27T07:51:14;99436.38;;;13.39;100.00
17505;BME280;8870;50.950;11.762;2023-05-27T07:56:37;99431.56;;;13.51;100.00
17505;BME280;8870;50.950;11.762;2023-05-27T08:02:10;99423.41;;;13.69;100.00
17505;BME280;8870;50.950;11.762;2023-05-27T08:07:28;99415.75;;;13.83;100.00
17505;BME280;8870;50.950;11.762;2023-05-27T08:13:31;99406.88;;;13.99;100.00
17505;BME280;8870;50.950;11.762;2023-05-27T08:19:10;99397.47;;;14.11;100.00
17505;BME280;8870;50.950;11.762;2023-05-27T08:25:02;99405.69;;;14.28;100.00
17505;BME280;8870;50.950;11.762;2023-05-27T08:30:36;99406.44;;;14.38;100.00
17505;BME280;8870;50.950;11.762;2023-05-27T08:36:25;99395.31;;;14.58;100.00
17505;BME280;8870;50.950;11.762;2023-05-27T08:41:43;99389.09;;;14.66;100.00
17505;BME280;8870;50.950;11.762;2023-05-27T08:47:17;99377.66;;;14.80;100.00
17505;BME280;8870;50.950;11.762;2023-05-27T08:52:41;99388.38;;;14.98;100.00
17505;BME280;8870;50.950;11.762;2023-05-27T08:58:15;99377.53;;;15.06;100.00
17505;BME280;8870;50.950;11.762;2023-05-27T09:03:37;99385.03;;;15.21;100.00
17505;BME280;8870;50.950;11.762;2023-05-27T09:09:09;99365.84;;;15.22;100.00
17505;BME280;8870;50.950;11.762;2023-05-27T09:14:27;99365.00;;;15.30;100.00
17505;BME280;8870;50.950;11.762;2023-05-27T09:20:04;99359.41;;;15.40;100.00
17505;BME280;8870;50.950;11.762;2023-05-27T09:25:24;99354.50;;;15.44;100.00
17505;BME280;8870;50.950;11.762;2023-05-27T09:31:02;99349.06;;;15.44;100.00
17505;BME280;8870;50.950;11.762;2023-05-27T09:36:23;99350.22;;;15.57;100.00
17505;BME280;8870;50.950;11.762;2023-05-27T09:41:56;99350.41;;;15.64;100.00
17505;BME280;8870;50.950;11.762;2023-05-27T09:47:16;99346.66;;;15.74;100.00
17505;BME280;8870;50.950;11.762;2023-05-27T09:52:53;99336.81;;;15.89;100.00
17505;BME280;8870;50.950;11.762;2023-05-27T09:58:20;99337.47;;;15.99;100.00
17505;BME280;8870;50.950;11.762;2023-05-27T10:03:52;99328.06;;;16.18;100.00
17505;BME280;8870;50.950;11.762;2023-05-27T10:09:12;99322.78;;;16.25;100.00
17505;BME280;8870;50.950;11.762;2023-05-27T10:14:45;99326.13;;;16.36;100.00
17505;BME280;8870;50.950;11.762;2023-05-27T10:20:04;99319.94;;;16.50;100.00
17505;BME280;8870;50.950;11.762;2023-05-27T10:25:45;99308.03;;;16.51;100.00
17505;BME280;8870;50.950;11.762;2023-05-27T10:31:05;99316.81;;;16.61;100.00
17505;BME280;8870;50.950;11.762;2023-05-27T10:36:37;99309.22;;;16.80;100.00
17505;BME280;8870;50.950;11.762;2023-05-27T10:42:05;99300.56;;;16.76;100.00
17505;BME280;8870;50.950;11.762;2023-05-27T10:47:38;99295.97;;;16.77;100.00
17505;BME280;8870;50.950;11.762;2023-05-27T10:52:56;99295.00;;;17.01;99.43
17505;BME280;8870;50.950;11.762;2023-05-27T10:58:33;99282.09;;;16.95;98.56
17505;BME280;8870;50.950;11.762;2023-05-27T11:03:52;99277.09;;;17.07;92.07
17505;BME280;8870;50.950;11.762;2023-05-27T11:09:23;99267.84;;;17.31;95.22
17505;BME280;8870;50.950;11.762;2023-05-27T11:14:44;99254.44;;;17.60;97.57
17505;BME280;8870;50.950;11.762;2023-05-27T11:20:16;99253.63;;;17.74;84.07
17505;BME280;8870;50.950;11.762;2023-05-27T11:25:43;99247.91;;;17.69;90.55
17505;BME280;8870;50.950;11.762;2023-05-27T11:31:17;99242.91;;;17.87;93.66
17505;BME280;8870;50.950;11.762;2023-05-27T11:36:36;99243.13;;;18.01;89.90
17505;BME280;8870;50.950;11.762;2023-05-27T11:42:08;99233.91;;;18.02;81.20
17505;BME280;8870;50.950;11.762;2023-05-27T11:47:44;99234.94;;;18.01;75.01
17505;BME280;8870;50.950;11.762;2023-05-27T11:53:05;99225.25;;;18.13;83.16
17505;BME280;8870;50.950;11.762;2023-05-27T11:58:36;99219.69;;;18.22;75.57
17505;BME280;8870;50.950;11.762;2023-05-27T12:03:56;99218.50;;;18.46;76.10
17505;BME280;8870;50.950;11.762;2023-05-27T12:09:28;99208.75;;;18.58;72.50
17505;BME280;8870;50.950;11.762;2023-05-27T12:14:47;99193.75;;;18.69;74.85
17505;BME280;8870;50.950;11.762;2023-05-27T12:20:21;99187.53;;;18.97;72.19
17505;BME280;8870;50.950;11.762;2023-05-27T12:25:42;99194.81;;;19.18;68.90
17505;BME280;8870;50.950;11.762;2023-05-27T12:31:13;99182.50;;;19.29;64.36
17505;BME280;8870;50.950;11.762;2023-05-27T12:36:34;99185.69;;;19.33;63.40
17505;BME280;8870;50.950;11.762;2023-05-27T12:42:06;99184.72;;;19.47;59.99
17505;BME280;8870;50.950;11.762;2023-05-27T12:47:37;99169.72;;;19.71;59.64
17505;BME280;8870;50.950;11.762;2023-05-27T12:52:59;99172.19;;;19.95;57.97
17505;BME280;8870;50.950;11.762;2023-05-27T12:58:30;99167.75;;;19.94;57.81
17505;BME280;8870;50.950;11.762;2023-05-27T13:03:48;99155.81;;;20.08;58.34
17505;BME280;8870;50.950;11.762;2023-05-27T13:09:21;99158.84;;;20.33;55.97
17505;BME280;8870;50.950;11.762;2023-05-27T13:14:40;99145.59;;;20.57;56.39
17505;BME280;8870;50.950;11.762;2023-05-27T13:20:12;99148.81;;;20.88;54.73
17505;BME280;8870;50.950;11.762;2023-05-27T13:25:34;99144.81;;;21.11;54.45
17505;BME280;8870;50.950;11.762;2023-05-27T13:31:05;99143.72;;;21.32;53.14
17505;BME280;8870;50.950;11.762;2023-05-27T13:36:25;99126.16;;;21.46;52.28
17505;BME280;8870;50.950;11.762;2023-05-27T13:42:01;99110.34;;;21.55;50.45
17505;BME280;8870;50.950;11.762;2023-05-27T13:47:33;99109.88;;;21.78;49.68
17505;BME280;8870;50.950;11.762;2023-05-27T13:52:54;99111.13;;;21.76;49.61
17505;BME280;8870;50.950;11.762;2023-05-27T13:58:28;99107.66;;;21.94;48.79
17505;BME280;8870;50.950;11.762;2023-05-27T14:03:47;99105.09;;;22.06;49.38
17505;BME280;8870;50.950;11.762;2023-05-27T14:09:19;99088.47;;;22.32;47.61
17505;BME280;8870;50.950;11.762;2023-05-27T14:14:40;99085.94;;;22.63;48.17
17505;BME280;8870;50.950;11.762;2023-05-27T14:20:12;99069.19;;;22.90;45.52
17505;BME280;8870;50.950;11.762;2023-05-27T14:25:37;99065.56;;;22.96;45.35
17505;BME280;8870;50.950;11.762;2023-05-27T14:31:12;99059.31;;;23.07;45.39
17505;BME280;8870;50.950;11.762;2023-05-27T14:36:30;99057.88;;;23.42;46.16
17505;BME280;8870;50.950;11.762;2023-05-27T14:42:02;99049.94;;;23.34;45.99
17505;BME280;8870;50.950;11.762;2023-05-27T14:47:36;99044.31;;;23.78;44.45
17505;BME280;8870;50.950;11.762;2023-05-27T14:52:55;99047.19;;;24.02;45.52
17505;BME280;8870;50.950;11.762;2023-05-27T14:58:27;99034.81;;;23.92;42.08
17505;BME280;8870;50.950;11.762;2023-05-27T15:03:48;99037.97;;;23.96;43.52
17505;BME280;8870;50.950;11.762;2023-05-27T15:09:19;99022.66;;;24.00;42.43
17505;BME280;8870;50.950;11.762;2023-05-27T15:14:38;99023.19;;;24.21;43.97
17505;BME280;8870;50.950;11.762;2023-05-27T15:20:17;99023.81;;;24.35;42.46
17505;BME280;8870;50.950;11.762;2023-05-27T15:25:36;99020.81;;;24.24;42.54
17505;BME280;8870;50.950;11.762;2023-05-27T15:31:07;99016.38;;;24.35;42.28
17505;BME280;8870;50.950;11.762;2023-05-27T15:36:40;99017.13;;;24.42;40.52
17505;BME280;8870;50.950;11.762;2023-05-27T15:42:05;99004.28;;;24.24;41.81
17505;BME280;8870;50.950;11.762;2023-05-27T15:47:35;99001.53;;;24.24;41.13
17505;BME280;8870;50.950;11.762;2023-05-27T15:52:57;98995.88;;;24.19;43.15
17505;BME280;8870;50.950;11.762;2023-05-27T15:58:29;98990.75;;;24.23;42.33
17505;BME280;8870;50.950;11.762;2023-05-27T16:03:47;98987.19;;;24.34;42.86
17505;BME280;8870;50.950;11.762;2023-05-27T16:09:21;98979.97;;;24.09;40.16
17505;BME280;8870;50.950;11.762;2023-05-27T16:14:39;98968.97;;;24.21;43.00
17505;BME280;8870;50.950;11.762;2023-05-27T16:20:10;98966.69;;;24.18;41.80
17505;BME280;8870;50.950;11.762;2023-05-27T16:25:33;98955.34;;;24.26;42.91
17505;BME280;8870;50.950;11.762;2023-05-27T16:31:04;98956.63;;;24.12;42.16
17505;BME280;8870;50.950;11.762;2023-05-27T16:36:23;98954.38;;;24.21;43.39
17505;BME280;8870;50.950;11.762;2023-05-27T16:41:56;98946.94;;;24.21;42.41
17505;BME280;8870;50.950;11.762;2023-05-27T16:47:28;98951.13;;;24.12;42.66
17505;BME280;8870;50.950;11.762;2023-05-27T16:52:46;98939.75;;;24.20;43.23
17505;BME280;8870;50.950;11.762;2023-05-27T16:58:20;98936.25;;;24.01;42.42
17505;BME280;8870;50.950;11.762;2023-05-27T17:03:40;98944.22;;;23.91;43.66
17505;BME280;8870;50.950;11.762;2023-05-27T17:09:11;98937.63;;;23.80;43.62
17505;BME280;8870;50.950;11.762;2023-05-27T17:14:32;98935.31;;;23.65;43.71
17505;BME280;8870;50.950;11.762;2023-05-27T17:20:06;98917.53;;;23.37;43.27
17505;BME280;8870;50.950;11.762;2023-05-27T17:25:34;98925.41;;;23.15;43.53
17505;BME280;8870;50.950;11.762;2023-05-27T17:31:08;98913.66;;;23.07;43.59
17505;BME280;8870;50.950;11.762;2023-05-27T17:36:26;98917.31;;;23.01;44.64
17505;BME280;8870;50.950;11.762;2023-05-27T17:41:58;98916.88;;;22.86;44.46
17505;BME280;8870;50.950;11.762;2023-05-27T17:47:20;98910.75;;;22.65;44.92
17505;BME280;8870;50.950;11.762;2023-05-27T17:52:52;98916.69;;;22.43;46.07
17505;BME280;8870;50.950;11.762;2023-05-27T17:58:10;98923.03;;;22.19;46.45
17505;BME280;8870;50.950;11.762;2023-05-27T18:03:44;98914.38;;;21.96;47.20
17505;BME280;8870;50.950;11.762;2023-05-27T18:09:02;98916.28;;;21.57;47.50
17505;BME280;8870;50.950;11.762;2023-05-27T18:14:34;98913.75;;;21.23;47.82
17505;BME280;8870;50.950;11.762;2023-05-27T18:19:56;98913.06;;;20.89;48.54
17505;BME280;8870;50.950;11.762;2023-05-27T18:25:28;98909.97;;;20.52;49.06
17505;BME280;8870;50.950;11.762;2023-05-27T18:30:46;98909.19;;;20.25;49.87
17505;BME280;8870;50.950;11.762;2023-05-27T18:36:20;98910.91;;;19.92;50.59
17505;BME280;8870;50.950;11.762;2023-05-27T18:41:39;98901.38;;;19.61;50.98
17505;BME280;8870;50.950;11.762;2023-05-27T18:47:11;98909.06;;;19.24;51.86
17505;BME280;8870;50.950;11.762;2023-05-27T18:52:32;98905.34;;;18.90;52.04
17505;BME280;8870;50.950;11.762;2023-05-27T18:58:03;98906.69;;;18.59;53.05
17505;BME280;8870;50.950;11.762;2023-05-27T19:03:22;98911.75;;;18.27;53.76
17505;BME280;8870;50.950;11.762;2023-05-27T19:08:57;98905.19;;;17.93;55.16
17505;BME280;8870;50.950;11.762;2023-05-27T19:14:15;98912.72;;;17.69;55.35
17505;BME280;8870;50.950;11.762;2023-05-27T19:19:46;98918.56;;;17.44;56.86
17505;BME280;8870;50.950;11.762;2023-05-27T19:25:08;98913.09;;;17.22;57.96
17505;BME280;8870;50.950;11.762;2023-05-27T19:30:39;98916.25;;;17.04;59.81
17505;BME280;8870;50.950;11.762;2023-05-27T19:35:57;98917.38;;;16.80;64.67
17505;BME280;8870;50.950;11.762;2023-05-27T19:41:31;98913.06;;;16.56;68.33
17505;BME280;8870;50.950;11.762;2023-05-27T19:46:57;98903.59;;;16.37;71.10
17505;BME280;8870;50.950;11.762;2023-05-27T19:52:38;98902.06;;;16.19;77.95
17505;BME280;8870;50.950;11.762;2023-05-27T19:57:59;98908.53;;;16.03;81.61
17505;BME280;8870;50.950;11.762;2023-05-27T20:03:31;98900.34;;;15.88;84.15
17505;BME280;8870;50.950;11.762;2023-05-27T20:08:49;98903.81;;;15.74;85.71
17505;BME280;8870;50.950;11.762;2023-05-27T20:14:24;98900.25;;;15.58;89.06
17505;BME280;8870;50.950;11.762;2023-05-27T20:19:42;98902.22;;;15.41;91.95
17505;BME280;8870;50.950;11.762;2023-05-27T20:25:13;98894.75;;;15.20;95.79
17505;BME280;8870;50.950;11.762;2023-05-27T20:30:34;98893.13;;;15.02;96.48
17505;BME280;8870;50.950;11.762;2023-05-27T20:36:07;98894.06;;;14.86;97.96
17505;BME280;8870;50.950;11.762;2023-05-27T20:41:26;98895.19;;;14.69;100.00
17505;BME280;8870;50.950;11.762;2023-05-27T20:47:00;98898.44;;;14.47;100.00
17505;BME280;8870;50.950;11.762;2023-05-27T20:52:19;98898.34;;;14.32;100.00
17505;BME280;8870;50.950;11.762;2023-05-27T20:57:50;98883.97;;;14.15;100.00
17505;BME280;8870;50.950;11.762;2023-05-27T21:03:11;98886.91;;;13.97;100.00
17505;BME280;8870;50.950;11.762;2023-05-27T21:08:43;98879.97;;;13.78;100.00
17505;BME280;8870;50.950;11.762;2023-05-27T21:14:01;98886.75;;;13.58;100.00
17505;BME280;8870;50.950;11.762;2023-05-27T21:19:36;98894.16;;;13.39;100.00
17505;BME280;8870;50.950;11.762;2023-05-27T21:24:54;98884.66;;;13.26;100.00
17505;BME280;8870;50.950;11.762;2023-05-27T21:30:25;98881.59;;;13.13;100.00
17505;BME280;8870;50.950;11.762;2023-05-27T21:35:46;98876.00;;;12.98;100.00
17505;BME280;8870;50.950;11.762;2023-05-27T21:41:20;98876.63;;;12.75;100.00
17505;BME280;8870;50.950;11.762;2023-05-27T21:46:38;98871.00;;;12.60;100.00
17505;BME280;8870;50.950;11.762;2023-05-27T21:52:12;98875.00;;;12.48;100.00
17505;BME280;8870;50.950;11.762;2023-05-27T21:57:30;98868.88;;;12.38;100.00
17505;BME280;8870;50.950;11.762;2023-05-27T22:03:03;98862.41;;;12.30;100.00
17505;BME280;8870;50.950;11.762;2023-05-27T22:08:24;98869.47;;;12.23;100.00
17505;BME280;8870;50.950;11.762;2023-05-27T22:13:55;98865.72;;;12.16;100.00
17505;BME280;8870;50.950;11.762;2023-05-27T22:19:13;98867.53;;;12.07;100.00
17505;BME280;8870;50.950;11.762;2023-05-27T22:24:48;98858.81;;;11.95;100.00
17505;BME280;8870;50.950;11.762;2023-05-27T22:30:07;98865.81;;;11.80;100.00
17505;BME280;8870;50.950;11.762;2023-05-27T22:35:38;98861.16;;;11.64;100.00
